Lawrence, KS

10:09 AM CDT on September 02, 2014 (GMT -0500)
Channel 6 Downtown | Change Station
CLOSE
Current Station
Personal Weather Station
Location: Lawrence, KS
Elevation: 850 ft
Nearby Weather Stations

Elev 850 ft 38.97 °N, 95.23 °W | Updated 1 second ago

Overcast
Overcast
69.6 °F
Feels Like 69.6 °F
N
0.0
Wind Variable Wind from North
Gusts 4.0 mph

Today
High -- | Low -- °F
--% Chance of Precip.
Yesterday
High -- | Low -- °F
Precip. -- in
6:50 AM 7:49 PM
First Quarter, 52% visible
Pressure 30.00 in
Visibility 6.0 miles
Clouds Overcast 500 ft
Dew Point 69 °F
Humidity 97%
Rainfall 0.44 in
Snow Depth Not available.
UV 1 out of 12
Pollen 10.00 out of 12
Air Quality Not available.
Flu Activity Not available.
METAR KLWC 021452Z AUTO 33004KT 6SM BR OVC005 22/20 A3000 RMK AO2 SLPNO T02170200 51003

More Conditions Fewer Conditions

Pressure 30.00 in
Visibility 6.0 miles
Clouds Overcast 500 ft
Dew Point 69 °F
Humidity 97%
Rainfall 0.44 in
Snow Depth Not available.
UV 1 out of 12
Pollen 10.00 out of 12
Air Quality Not available.
Flu Activity Not available.
METAR KLWC 021452Z AUTO 33004KT 6SM BR OVC005 22/20 A3000 RMK AO2 SLPNO T02170200 51003

More Conditions Fewer Conditions

10-Day Weather Forecast

Almanac

Astronomy

Sep. 02, 2014 Rise Set
Actual Time 6:50 AM CDT 7:49 PM CDT
Civil Twilight 6:23 AM CDT 8:17 PM CDT
Nautical Twilight 5:51 AM CDT 8:49 PM CDT
Astronomical Twilight 5:17 AM CDT 9:22 PM CDT
Moon 2:32 PM CDT No Moon Set
Length of Visible Light 13h 53m
Length of Day
12h 59m
Tomorrow will be 2m 27s shorter.
First Quarter, 52% of the Moon is Illuminated
Today
First Quarter
Sep 8
Full
Sep 15
Last Quarter
Sep 24
New
Oct 1
First Quarter

Today's Extremes

State Highs State Lows

Community

WunderPhotos

Upload Photos

1,749,688 photos uploaded!

WunderBlogs® & News

Nearby

Snow Depth

Station Depth Elevation
No new snow has been reported.

Earthquake Activity

City Distance Mag. Time & Date
No recent earthquake activity has been reported nearby.
Minimum magnitude displayed is 2.5.

Coastal Water Temperatures

Place Temperature
No Stations Reporting

Nearby Weather Stations